createdAt,value
2022-09-13T00:00:31.717Z,9.278186
2022-09-13T00:01:31.822Z,9.278266
2022-09-13T00:02:31.766Z,9.278308
2022-09-13T00:03:31.666Z,9.278252
2022-09-13T00:04:31.650Z,9.278260
2022-09-13T00:05:31.653Z,9.278342
2022-09-13T00:06:31.681Z,9.278267
2022-09-13T00:07:31.610Z,9.278270
2022-09-13T00:08:31.686Z,9.278234
2022-09-13T00:09:31.574Z,9.278246
2022-09-13T00:10:31.565Z,9.278244
2022-09-13T00:11:31.568Z,9.278360
2022-09-13T00:12:31.524Z,9.278247
2022-09-13T00:13:31.516Z,9.278239
2022-09-13T00:14:31.493Z,9.278265
2022-09-13T00:15:31.475Z,9.278282
2022-09-13T00:16:31.621Z,9.278357
2022-09-13T00:17:31.436Z,9.278266
2022-09-13T00:18:31.477Z,9.278209
2022-09-13T00:19:31.406Z,9.278323
2022-09-13T00:20:31.396Z,9.278232
2022-09-13T00:21:31.404Z,9.278367
2022-09-13T00:22:31.372Z,9.278527
2022-09-13T00:23:31.332Z,9.278489
2022-09-13T00:24:31.405Z,9.278211
2022-09-13T00:25:31.325Z,9.278592
2022-09-13T00:26:31.332Z,9.278899
2022-09-13T00:27:31.391Z,9.278246
2022-09-13T00:28:31.351Z,9.278161
2022-09-13T00:29:31.255Z,9.278223
2022-09-13T00:30:31.279Z,9.278334
2022-09-13T00:31:31.296Z,9.278382
2022-09-13T00:32:31.192Z,9.278353
2022-09-13T00:33:31.177Z,9.278360
2022-09-13T00:34:31.180Z,9.278411
2022-09-13T00:35:31.140Z,9.278357
2022-09-13T00:36:31.156Z,9.278342
2022-09-13T00:37:31.107Z,9.278341
2022-09-13T00:38:31.184Z,9.278308
2022-09-13T00:39:31.082Z,9.278291
2022-09-13T00:40:31.086Z,9.278260
2022-09-13T00:41:31.073Z,9.278296
2022-09-13T00:42:31.039Z,9.278262
2022-09-13T00:43:31.015Z,9.278304
2022-09-13T00:44:31.004Z,9.278307
2022-09-13T00:45:31.002Z,9.278344
2022-09-13T00:46:30.977Z,9.278338
2022-09-13T00:47:30.941Z,9.278349
2022-09-13T00:48:30.991Z,9.278384
2022-09-13T00:49:30.943Z,9.278354
2022-09-13T00:50:30.889Z,9.278681
2022-09-13T00:51:30.942Z,9.278544
2022-09-13T00:52:30.856Z,9.278171
2022-09-13T00:53:30.840Z,9.278277
2022-09-13T00:54:30.826Z,9.278396
2022-09-13T00:55:30.817Z,9.278348
2022-09-13T00:56:30.838Z,9.278387
2022-09-13T00:57:30.782Z,9.278326
2022-09-13T00:58:30.780Z,9.278286
2022-09-13T00:59:30.761Z,9.278359
2022-09-13T01:00:30.823Z,9.278311
2022-09-13T01:01:30.763Z,9.278319
2022-09-13T01:02:30.737Z,9.278361
2022-09-13T01:03:30.725Z,9.278346
2022-09-13T01:04:30.657Z,9.278335
2022-09-13T01:05:30.644Z,9.278333
2022-09-13T01:06:30.636Z,9.278309
2022-09-13T01:07:31.612Z,9.278297
2022-09-13T01:08:30.623Z,9.278258
2022-09-13T01:09:30.565Z,9.278266
2022-09-13T01:10:30.569Z,9.278316
2022-09-13T01:11:30.645Z,9.278379
2022-09-13T01:12:30.527Z,9.278305
2022-09-13T01:13:30.521Z,9.278193
2022-09-13T01:14:30.486Z,9.278368
2022-09-13T01:15:30.473Z,9.278389
2022-09-13T01:16:30.534Z,9.278447
2022-09-13T01:17:30.432Z,9.278397
2022-09-13T01:18:30.435Z,9.278259
2022-09-13T01:19:31.407Z,9.278307
2022-09-13T01:20:30.384Z,9.278272
2022-09-13T01:21:30.406Z,9.278307
2022-09-13T01:22:30.356Z,9.278302
2022-09-13T01:23:31.338Z,9.278197
2022-09-13T01:24:30.320Z,9.278220
2022-09-13T01:25:30.318Z,9.278206
2022-09-13T01:26:30.333Z,9.278274
2022-09-13T01:27:30.272Z,9.278297
2022-09-13T01:28:30.350Z,9.278297
2022-09-13T01:29:30.241Z,9.278354
2022-09-13T01:30:30.224Z,9.278426
2022-09-13T01:31:30.264Z,9.278267
2022-09-13T01:32:30.187Z,9.278308
2022-09-13T01:33:30.180Z,9.278359
2022-09-13T01:34:30.166Z,9.278266
2022-09-13T01:35:30.169Z,9.278294
2022-09-13T01:36:30.147Z,9.278219
2022-09-13T01:37:30.105Z,9.278216
2022-09-13T01:38:30.896Z,9.278346
2022-09-13T01:39:30.068Z,9.278407
2022-09-13T01:40:30.060Z,9.278438
2022-09-13T01:41:30.073Z,9.278303
2022-09-13T01:42:30.021Z,9.278334
2022-09-13T01:43:30.005Z,9.278325
2022-09-13T01:44:30.135Z,9.278378
2022-09-13T01:45:30.033Z,9.278395
2022-09-13T01:46:30.004Z,9.278409
2022-09-13T01:47:29.954Z,9.278342
2022-09-13T01:48:30.007Z,9.278301
2022-09-13T01:49:29.915Z,9.278402
2022-09-13T01:50:29.907Z,9.278257
2022-09-13T01:51:29.900Z,9.278251
2022-09-13T01:52:29.911Z,9.278172
2022-09-13T01:53:29.852Z,9.278318
2022-09-13T01:54:29.819Z,9.278312
2022-09-13T01:55:29.806Z,9.278315
2022-09-13T01:56:29.814Z,9.278360
2022-09-13T01:57:29.771Z,9.278375
2022-09-13T01:58:29.833Z,9.278368
2022-09-13T01:59:29.752Z,9.278301
2022-09-13T02:00:29.732Z,9.278351
2022-09-13T02:01:29.820Z,9.278362
2022-09-13T02:02:29.718Z,9.278345
2022-09-13T02:03:29.697Z,9.278391
2022-09-13T02:04:29.661Z,9.278347
2022-09-13T02:05:29.667Z,9.278371
2022-09-13T02:06:29.715Z,9.278384
2022-09-13T02:07:29.615Z,9.278257
2022-09-13T02:08:29.648Z,9.278302
2022-09-13T02:09:29.591Z,9.278323
2022-09-13T02:10:29.567Z,9.278302
2022-09-13T02:11:29.571Z,9.278332
2022-09-13T02:12:29.521Z,9.278345
2022-09-13T02:13:29.515Z,9.278318
2022-09-13T02:14:29.500Z,9.278284
2022-09-13T02:15:29.479Z,9.278316
2022-09-13T02:16:29.510Z,9.278384
2022-09-13T02:17:29.451Z,9.278390
2022-09-13T02:18:29.421Z,9.278315
2022-09-13T02:19:29.413Z,9.278252
2022-09-13T02:20:29.390Z,9.278095
2022-09-13T02:21:29.420Z,9.278192
2022-09-13T02:22:29.368Z,9.278303
2022-09-13T02:23:29.339Z,9.278328
2022-09-13T02:24:29.337Z,9.278412
2022-09-13T02:25:29.302Z,9.278287
2022-09-13T02:26:29.357Z,9.278251
2022-09-13T02:27:29.306Z,9.278257
2022-09-13T02:28:29.267Z,9.278282
2022-09-13T02:29:29.244Z,9.278283
2022-09-13T02:30:29.242Z,9.278314
2022-09-13T02:31:29.282Z,9.278365
2022-09-13T02:32:29.206Z,9.278405
2022-09-13T02:33:29.195Z,9.278325
2022-09-13T02:34:29.155Z,9.278371
2022-09-13T02:35:29.151Z,9.278442
2022-09-13T02:36:29.166Z,9.278323
2022-09-13T02:37:29.117Z,9.278225
2022-09-13T02:38:29.123Z,9.278243
2022-09-13T02:39:29.133Z,9.278369
2022-09-13T02:40:29.093Z,9.278359
2022-09-13T02:41:29.104Z,9.278245
2022-09-13T02:42:29.052Z,9.278217
2022-09-13T02:43:29.008Z,9.278185
2022-09-13T02:44:28.992Z,9.278356
2022-09-13T02:45:29.031Z,9.278308
2022-09-13T02:46:28.968Z,9.278278
2022-09-13T02:47:28.987Z,9.278316
2022-09-13T02:48:28.960Z,9.278355
2022-09-13T02:49:28.916Z,9.278316
2022-09-13T02:50:28.916Z,9.278328
2022-09-13T02:51:28.919Z,9.278271
2022-09-13T02:52:28.906Z,9.278294
2022-09-13T02:53:28.846Z,9.278242
2022-09-13T02:54:28.831Z,9.278268
2022-09-13T02:55:28.807Z,9.278317
2022-09-13T02:56:28.795Z,9.278290
2022-09-13T02:57:28.803Z,9.278306
2022-09-13T02:58:29.339Z,9.278191
2022-09-13T02:59:28.803Z,9.278385
2022-09-13T03:00:28.750Z,9.278394
2022-09-13T03:01:28.772Z,9.278456
2022-09-13T03:02:28.802Z,9.278320
2022-09-13T03:03:28.691Z,9.278296
2022-09-13T03:04:28.700Z,9.278171
2022-09-13T03:05:28.647Z,9.278314
2022-09-13T03:06:28.635Z,9.278373
2022-09-13T03:07:28.679Z,9.278308
2022-09-13T03:08:28.601Z,9.278341
2022-09-13T03:09:28.574Z,9.278370
2022-09-13T03:10:28.574Z,9.278310
2022-09-13T03:11:28.548Z,9.278292
2022-09-13T03:12:28.708Z,9.278274
2022-09-13T03:13:28.510Z,9.278213
2022-09-13T03:14:28.546Z,9.278310
2022-09-13T03:15:28.473Z,9.278337
2022-09-13T03:16:28.497Z,9.278310
2022-09-13T03:17:28.482Z,9.278280
2022-09-13T03:18:28.439Z,9.278267
2022-09-13T03:19:28.414Z,9.278327
2022-09-13T03:20:28.442Z,9.278315
2022-09-13T03:21:28.405Z,9.278306
2022-09-13T03:22:28.431Z,9.278337
2022-09-13T03:23:28.342Z,9.278301
2022-09-13T03:24:28.323Z,9.278340
2022-09-13T03:25:28.308Z,9.278413
2022-09-13T03:26:28.299Z,9.278297
2022-09-13T03:27:28.322Z,9.278317
2022-09-13T03:28:28.260Z,9.278295
2022-09-13T03:29:28.249Z,9.278379
2022-09-13T03:30:28.236Z,9.278366
2022-09-13T03:31:28.251Z,9.278287
2022-09-13T03:32:28.237Z,9.278238
2022-09-13T03:33:28.188Z,9.278287
2022-09-13T03:34:28.191Z,9.278249
2022-09-13T03:35:28.143Z,9.278348
2022-09-13T03:36:28.127Z,9.278284
2022-09-13T03:37:28.154Z,9.278382
2022-09-13T03:38:28.140Z,9.278292
2022-09-13T03:39:28.079Z,9.278353
2022-09-13T03:40:28.075Z,9.278370
2022-09-13T03:41:28.041Z,9.278345
2022-09-13T03:42:28.066Z,9.278283
2022-09-13T03:43:28.012Z,9.278256
2022-09-13T03:44:27.997Z,9.278379
2022-09-13T03:45:28.060Z,9.278488
2022-09-13T03:46:28.973Z,9.278292
2022-09-13T03:47:27.977Z,9.278256
2022-09-13T03:48:27.964Z,9.278264
2022-09-13T03:49:27.930Z,9.278264
2022-09-13T03:50:27.892Z,9.278284
2022-09-13T03:51:27.881Z,9.278308
2022-09-13T03:52:27.912Z,9.278289
2022-09-13T03:53:27.868Z,9.278301
2022-09-13T03:54:27.836Z,9.278277
2022-09-13T03:55:27.822Z,9.278226
2022-09-13T03:56:27.853Z,9.278195
2022-09-13T03:57:27.825Z,9.278121
2022-09-13T03:58:27.805Z,9.278283
2022-09-13T03:59:27.755Z,9.278317
2022-09-13T04:00:27.733Z,9.278394
2022-09-13T04:01:27.733Z,9.278261
2022-09-13T04:02:27.769Z,9.278306
2022-09-13T04:03:27.678Z,9.278264
2022-09-13T04:04:27.662Z,9.278293
2022-09-13T04:05:27.638Z,9.278226
2022-09-13T04:06:27.619Z,9.278234
2022-09-13T04:07:27.748Z,9.278234
2022-09-13T04:08:27.610Z,9.278233
2022-09-13T04:09:27.567Z,9.278255
2022-09-13T04:10:27.560Z,9.278283
2022-09-13T04:11:27.572Z,9.278320
2022-09-13T04:12:27.553Z,9.278345
2022-09-13T04:13:27.499Z,9.278305
2022-09-13T04:14:28.510Z,9.278299
2022-09-13T04:15:27.471Z,9.278292
2022-09-13T04:16:27.595Z,9.278266
2022-09-13T04:17:27.463Z,9.278307
2022-09-13T04:18:27.424Z,9.278271
2022-09-13T04:19:27.421Z,9.278255
2022-09-13T04:20:27.390Z,9.278229
2022-09-13T04:21:27.382Z,9.278227
2022-09-13T04:22:27.393Z,9.278267
2022-09-13T04:23:27.349Z,9.278215
2022-09-13T04:24:27.324Z,9.278210
2022-09-13T04:25:27.313Z,9.278293
2022-09-13T04:26:27.298Z,9.278336
2022-09-13T04:27:27.324Z,9.278251
2022-09-13T04:28:27.296Z,9.278223
2022-09-13T04:29:27.394Z,9.278255
2022-09-13T04:30:27.238Z,9.278229
2022-09-13T04:31:27.301Z,9.278188
2022-09-13T04:32:27.223Z,9.278214
2022-09-13T04:33:27.193Z,9.278191
2022-09-13T04:34:27.176Z,9.278230
2022-09-13T04:35:27.144Z,9.278123
2022-09-13T04:36:27.133Z,9.278156
2022-09-13T04:37:27.147Z,9.278278
2022-09-13T04:38:27.137Z,9.278326
2022-09-13T04:39:27.087Z,9.278312
2022-09-13T04:40:27.063Z,9.278311
2022-09-13T04:41:27.057Z,9.278247
2022-09-13T04:42:27.063Z,9.278214
2022-09-13T04:43:27.011Z,9.278220
2022-09-13T04:44:26.987Z,9.278335
2022-09-13T04:45:26.982Z,9.278337
2022-09-13T04:46:26.964Z,9.278356
2022-09-13T04:47:26.983Z,9.278339
2022-09-13T04:48:27.002Z,9.278264
2022-09-13T04:49:26.911Z,9.278279
2022-09-13T04:50:26.939Z,9.278333
2022-09-13T04:51:26.877Z,9.278235
2022-09-13T04:52:26.881Z,9.278247
2022-09-13T04:53:26.837Z,9.278334
2022-09-13T04:54:26.829Z,9.278300
2022-09-13T04:55:26.803Z,9.278378
2022-09-13T04:56:26.786Z,9.278317
2022-09-13T04:57:27.825Z,9.278238
2022-09-13T04:58:26.872Z,9.278218
2022-09-13T04:59:26.742Z,9.278280
2022-09-13T05:00:26.755Z,9.278260
2022-09-13T05:01:28.063Z,9.278190
2022-09-13T05:02:27.853Z,9.278257
2022-09-13T05:03:26.676Z,9.278261
2022-09-13T05:04:26.735Z,9.278164
2022-09-13T05:05:26.639Z,9.278206
2022-09-13T05:06:26.631Z,9.278156
2022-09-13T05:07:26.633Z,9.278261
2022-09-13T05:08:26.631Z,9.278250
2022-09-13T05:09:26.615Z,9.278228
2022-09-13T05:10:26.577Z,9.278276
2022-09-13T05:11:26.545Z,9.278341
2022-09-13T05:12:26.556Z,9.278318
2022-09-13T05:13:26.559Z,9.278196
2022-09-13T05:14:26.521Z,9.278077
2022-09-13T05:15:26.473Z,9.278040
2022-09-13T05:16:26.527Z,9.278104
2022-09-13T05:17:26.472Z,9.277891
2022-09-13T05:18:27.469Z,9.277834
2022-09-13T05:19:26.413Z,9.277857
2022-09-13T05:20:26.466Z,9.277894
2022-09-13T05:21:26.371Z,9.278404
2022-09-13T05:22:26.376Z,9.278361
2022-09-13T05:23:26.379Z,9.278427
2022-09-13T05:24:26.504Z,9.278296
2022-09-13T05:25:26.313Z,9.278318
2022-09-13T05:26:26.312Z,9.278223
2022-09-13T05:27:26.302Z,9.278197
2022-09-13T05:28:26.372Z,9.278362
2022-09-13T05:29:26.235Z,9.278376
2022-09-13T05:30:26.225Z,9.278404
2022-09-13T05:31:26.271Z,9.278427
2022-09-13T05:32:26.314Z,9.278160
2022-09-13T05:33:26.210Z,9.278156
2022-09-13T05:34:26.149Z,9.278291
2022-09-13T05:35:26.198Z,9.278325
2022-09-13T05:36:26.193Z,9.278250
2022-09-13T05:37:26.109Z,9.278255
2022-09-13T05:38:26.183Z,9.278185
2022-09-13T05:39:36.048Z,9.278146
2022-09-13T05:40:28.141Z,9.278108
2022-09-13T05:41:26.040Z,9.278166
2022-09-13T05:42:26.039Z,9.278080
2022-09-13T05:43:26.581Z,9.278039
2022-09-13T05:44:27.045Z,9.278143
2022-09-13T05:45:25.970Z,9.278132
2022-09-13T05:46:26.044Z,9.278087
2022-09-13T05:47:25.932Z,9.278058
2022-09-13T05:48:25.986Z,9.278154
2022-09-13T05:49:25.904Z,9.278126
2022-09-13T05:50:54.228Z,9.278156
2022-09-13T05:51:27.878Z,9.278243
2022-09-13T05:52:25.866Z,9.278169
2022-09-13T05:53:25.901Z,9.278321
2022-09-13T05:54:25.833Z,9.278321
2022-09-13T05:55:25.833Z,9.278269
2022-09-13T05:56:25.796Z,9.278208
2022-09-13T05:57:25.777Z,9.278283
2022-09-13T05:58:25.835Z,9.278187
2022-09-13T05:59:25.777Z,9.278225
2022-09-13T06:00:25.767Z,9.278198
2022-09-13T06:01:25.750Z,9.278238
2022-09-13T06:02:25.767Z,9.278097
2022-09-13T06:03:25.711Z,9.278204
2022-09-13T06:04:25.648Z,9.277966
2022-09-13T06:05:29.831Z,9.278105
2022-09-13T06:06:27.630Z,9.278282
2022-09-13T06:07:25.619Z,9.278152
2022-09-13T06:08:25.717Z,9.278240
2022-09-13T06:09:25.572Z,9.278242
2022-09-13T06:10:25.545Z,9.278217
2022-09-13T06:11:25.535Z,9.278464
2022-09-13T06:12:25.517Z,9.278432
2022-09-13T06:13:25.543Z,9.278304
2022-09-13T06:14:25.479Z,9.278236
2022-09-13T06:15:25.473Z,9.278419
2022-09-13T06:16:25.507Z,9.278326
2022-09-13T06:17:25.436Z,9.278287
2022-09-13T06:18:25.484Z,9.278309
2022-09-13T06:19:25.573Z,9.278239
2022-09-13T06:20:25.393Z,9.278288
2022-09-13T06:21:28.896Z,9.278243
2022-09-13T06:22:26.353Z,9.278197
2022-09-13T06:23:25.366Z,9.278288
2022-09-13T06:24:25.389Z,9.278287
2022-09-13T06:25:25.306Z,9.278187
2022-09-13T06:26:25.290Z,9.278170
2022-09-13T06:27:25.389Z,9.278154
2022-09-13T06:28:25.503Z,9.278021
2022-09-13T06:29:25.241Z,9.278039
2022-09-13T06:30:25.256Z,9.277924
2022-09-13T06:31:25.298Z,9.278057
2022-09-13T06:32:25.180Z,9.278218
2022-09-13T06:33:25.200Z,9.278135
2022-09-13T06:34:29.178Z,9.278138
2022-09-13T06:35:27.146Z,9.278211
2022-09-13T06:36:25.121Z,9.278125
2022-09-13T06:37:25.120Z,9.278133
2022-09-13T06:38:25.153Z,9.278148
2022-09-13T06:39:25.073Z,9.278221
2022-09-13T06:40:25.415Z,9.278323
2022-09-13T06:41:26.103Z,9.278272
2022-09-13T06:42:25.048Z,9.278215
2022-09-13T06:43:25.058Z,9.278288
2022-09-13T06:44:25.004Z,9.278509
2022-09-13T06:45:24.969Z,9.278573
2022-09-13T06:46:25.549Z,9.278700
2022-09-13T06:47:25.949Z,9.278664
2022-09-13T06:48:25.072Z,9.278637
2022-09-13T06:49:24.946Z,9.278680
2022-09-13T06:50:24.906Z,9.278586
2022-09-13T06:51:24.917Z,9.278265
2022-09-13T06:52:25.000Z,9.278321
2022-09-13T06:53:24.902Z,9.278356
2022-09-13T06:54:24.860Z,9.278507
2022-09-13T06:55:24.839Z,9.278734
2022-09-13T06:56:24.888Z,9.278705
2022-09-13T06:57:24.808Z,9.278615
2022-09-13T06:58:25.426Z,9.278476
2022-09-13T06:59:24.766Z,9.278429
2022-09-13T07:00:24.717Z,9.278425
2022-09-13T07:01:25.858Z,9.278360
2022-09-13T07:02:24.869Z,9.278279
2022-09-13T07:03:24.719Z,9.278341
2022-09-13T07:04:24.695Z,9.278276
2022-09-13T07:05:24.631Z,9.278346
2022-09-13T07:06:24.628Z,9.278340
2022-09-13T07:07:24.605Z,9.278303
2022-09-13T07:08:24.680Z,9.278450
2022-09-13T07:09:24.577Z,9.278399
2022-09-13T07:10:24.618Z,9.278492
2022-09-13T07:11:24.541Z,9.278669
2022-09-13T07:12:24.552Z,9.278754
2022-09-13T07:13:24.535Z,9.278633
2022-09-13T07:14:24.587Z,9.278600
2022-09-13T07:15:24.500Z,9.278666
2022-09-13T07:16:24.448Z,9.278716
2022-09-13T07:17:26.621Z,9.278520
2022-09-13T07:18:25.410Z,9.278434
2022-09-13T07:19:24.440Z,9.278397
2022-09-13T07:20:24.439Z,9.278358
2022-09-13T07:21:24.384Z,9.278309
2022-09-13T07:22:24.352Z,9.278271
2022-09-13T07:23:24.367Z,9.278435
2022-09-13T07:24:24.312Z,9.278433
2022-09-13T07:25:24.365Z,9.278435
2022-09-13T07:26:24.284Z,9.278416
2022-09-13T07:27:24.273Z,9.278438
2022-09-13T07:28:27.466Z,9.278400
2022-09-13T07:29:25.229Z,9.278394
2022-09-13T07:30:24.265Z,9.278461
2022-09-13T07:31:24.258Z,9.278438
2022-09-13T07:32:24.186Z,9.278492
2022-09-13T07:33:24.201Z,9.278440
2022-09-13T07:34:24.165Z,9.278316
2022-09-13T07:35:24.129Z,9.278347
2022-09-13T07:36:24.204Z,9.278384
2022-09-13T07:37:24.097Z,9.278447
2022-09-13T07:38:24.169Z,9.278384
2022-09-13T07:39:24.061Z,9.278409
2022-09-13T07:40:24.171Z,9.278359
2022-09-13T07:41:24.032Z,9.278409
2022-09-13T07:42:24.014Z,9.278395
2022-09-13T07:43:24.044Z,9.278404
2022-09-13T07:44:23.977Z,9.278441
2022-09-13T07:45:23.970Z,9.278453
2022-09-13T07:46:24.011Z,9.278457
2022-09-13T07:47:23.970Z,9.278420
2022-09-13T07:48:24.015Z,9.278431
2022-09-13T07:49:24.896Z,9.278402
2022-09-13T07:50:23.885Z,9.278453
2022-09-13T07:51:23.881Z,9.278425
2022-09-13T07:52:23.872Z,9.278501
2022-09-13T07:53:23.878Z,9.278409
2022-09-13T07:54:23.812Z,9.278396
2022-09-13T07:55:23.796Z,9.278316
2022-09-13T07:56:23.775Z,9.278271
2022-09-13T07:57:23.758Z,9.278270
2022-09-13T07:58:23.877Z,9.278287
2022-09-13T07:59:27.002Z,9.278328
2022-09-13T08:00:25.725Z,9.278365
2022-09-13T08:01:23.861Z,9.278350
2022-09-13T08:02:23.732Z,9.278327
2022-09-13T08:03:23.700Z,9.278340
2022-09-13T08:04:23.665Z,9.278322
2022-09-13T08:05:23.663Z,9.278362
2022-09-13T08:06:23.624Z,9.278266
2022-09-13T08:07:23.612Z,9.278337
2022-09-13T08:08:23.760Z,9.278365
2022-09-13T08:09:23.615Z,9.278402
2022-09-13T08:10:23.559Z,9.278355
2022-09-13T08:11:23.526Z,9.278375
2022-09-13T08:12:23.524Z,9.278502
2022-09-13T08:13:23.540Z,9.278386
2022-09-13T08:14:23.485Z,9.278437
2022-09-13T08:15:23.478Z,9.278479
2022-09-13T08:16:23.456Z,9.278426
2022-09-13T08:17:23.441Z,9.278379
2022-09-13T08:18:23.518Z,9.278357
2022-09-13T08:19:23.398Z,9.278340
2022-09-13T08:20:23.445Z,9.278420
2022-09-13T08:21:23.375Z,9.278398
2022-09-13T08:22:23.369Z,9.278336
2022-09-13T08:23:23.370Z,9.278462
2022-09-13T08:24:23.360Z,9.278388
2022-09-13T08:25:23.292Z,9.278415
2022-09-13T08:26:23.303Z,9.278345
2022-09-13T08:27:23.260Z,9.278328
2022-09-13T08:28:27.402Z,9.278350
2022-09-13T08:29:24.242Z,9.278398
2022-09-13T08:30:23.222Z,9.278380
2022-09-13T08:31:23.306Z,9.278338
2022-09-13T08:32:23.251Z,9.278411
2022-09-13T08:33:23.204Z,9.278439
2022-09-13T08:34:23.166Z,9.278404
2022-09-13T08:35:23.140Z,9.278358
2022-09-13T08:36:23.123Z,9.278302
2022-09-13T08:37:23.786Z,9.278325
2022-09-13T08:38:23.148Z,9.278415
2022-09-13T08:39:23.079Z,9.278466
2022-09-13T08:40:23.093Z,9.278367
2022-09-13T08:41:23.040Z,9.278469
2022-09-13T08:42:23.042Z,9.278446
2022-09-13T08:43:23.044Z,9.278485
2022-09-13T08:44:22.977Z,9.278378
2022-09-13T08:45:22.969Z,9.278562
2022-09-13T08:46:23.008Z,9.278481
2022-09-13T08:47:22.929Z,9.278342
2022-09-13T08:48:22.997Z,9.278316
2022-09-13T08:49:22.890Z,9.278421
2022-09-13T08:50:22.888Z,9.278481
2022-09-13T08:51:22.858Z,9.278387
2022-09-13T08:52:22.909Z,9.278358
2022-09-13T08:53:22.832Z,9.278293
2022-09-13T08:54:22.841Z,9.278422
2022-09-13T08:55:22.806Z,9.278425
2022-09-13T08:56:22.787Z,9.278408
2022-09-13T08:57:22.758Z,9.278442
2022-09-13T08:58:22.747Z,9.278431
2022-09-13T08:59:22.776Z,9.278362
2022-09-13T09:00:22.728Z,9.278384
2022-09-13T09:01:22.741Z,9.278396
2022-09-13T09:02:22.709Z,9.278392
2022-09-13T09:03:22.648Z,9.278390
2022-09-13T09:04:22.744Z,9.278414
2022-09-13T09:05:22.629Z,9.278407
2022-09-13T09:06:22.612Z,9.278450
2022-09-13T09:07:22.582Z,9.278472
2022-09-13T09:08:22.638Z,9.278381
2022-09-13T09:09:22.591Z,9.278338
2022-09-13T09:10:22.536Z,9.278324
2022-09-13T09:11:22.514Z,9.278316
2022-09-13T09:12:22.502Z,9.278356
2022-09-13T09:13:24.562Z,9.278405
2022-09-13T09:14:23.497Z,9.278379
2022-09-13T09:15:22.470Z,9.278375
2022-09-13T09:16:22.428Z,9.278392
2022-09-13T09:17:22.522Z,9.278396
2022-09-13T09:18:23.283Z,9.278388
2022-09-13T09:19:22.428Z,9.278399
2022-09-13T09:20:22.370Z,9.278424
2022-09-13T09:21:22.374Z,9.278337
2022-09-13T09:22:22.356Z,9.278359
2022-09-13T09:23:22.333Z,9.278378
2022-09-13T09:24:22.370Z,9.278341
2022-09-13T09:25:22.325Z,9.278424
2022-09-13T09:26:23.381Z,9.278354
2022-09-13T09:27:22.277Z,9.278267
2022-09-13T09:28:22.251Z,9.278342
2022-09-13T09:29:25.059Z,9.278297
2022-09-13T09:30:23.232Z,9.278302
2022-09-13T09:31:22.309Z,9.278325
2022-09-13T09:32:22.181Z,9.278411
2022-09-13T09:33:22.169Z,9.278325
2022-09-13T09:34:22.195Z,9.278460
2022-09-13T09:35:22.138Z,9.278486
2022-09-13T09:36:22.139Z,9.278362
2022-09-13T09:37:22.227Z,9.278359
2022-09-13T09:38:22.131Z,9.278393
2022-09-13T09:39:22.140Z,9.278461
2022-09-13T09:40:22.171Z,9.278460
2022-09-13T09:41:22.062Z,9.278425
2022-09-13T09:42:22.030Z,9.278401
2022-09-13T09:43:22.012Z,9.278445
2022-09-13T09:44:22.056Z,9.278395
2022-09-13T09:45:22.003Z,9.278390
2022-09-13T09:46:22.011Z,9.278412
2022-09-13T09:47:25.954Z,9.278378
2022-09-13T09:48:22.947Z,9.278426
2022-09-13T09:49:21.958Z,9.278441
2022-09-13T09:50:21.918Z,9.278405
2022-09-13T09:51:21.895Z,9.278425
2022-09-13T09:52:21.873Z,9.278406
2022-09-13T09:53:21.862Z,9.278456
2022-09-13T09:54:21.873Z,9.278415
2022-09-13T09:55:21.836Z,9.278374
2022-09-13T09:56:21.839Z,9.278275
2022-09-13T09:57:21.802Z,9.278445
2022-09-13T09:58:21.803Z,9.278445
2022-09-13T09:59:21.812Z,9.278385
2022-09-13T10:00:21.770Z,9.278400
2022-09-13T10:01:22.797Z,9.278427
2022-09-13T10:02:21.785Z,9.278407
2022-09-13T10:03:21.762Z,9.278423
2022-09-13T10:04:21.708Z,9.278297
2022-09-13T10:05:21.694Z,9.278363
2022-09-13T10:06:21.685Z,9.278394
2022-09-13T10:07:21.657Z,9.278370
2022-09-13T10:08:21.760Z,9.278405
2022-09-13T10:09:21.616Z,9.278425
2022-09-13T10:10:22.375Z,9.278392
2022-09-13T10:11:21.585Z,9.278365
2022-09-13T10:12:21.576Z,9.278333
2022-09-13T10:13:21.590Z,9.278338
2022-09-13T10:14:21.533Z,9.278325
2022-09-13T10:15:21.523Z,9.278299
2022-09-13T10:16:21.568Z,9.278286
2022-09-13T10:17:21.497Z,9.278345
2022-09-13T10:18:42.765Z,9.278352
2022-09-13T10:19:23.465Z,9.278327
2022-09-13T10:20:21.445Z,9.278362
2022-09-13T10:21:21.486Z,9.278322
2022-09-13T10:22:21.410Z,9.278326
2022-09-13T10:23:21.455Z,9.278337
2022-09-13T10:24:21.367Z,9.278388
2022-09-13T10:25:21.377Z,9.278389
2022-09-13T10:26:21.354Z,9.278347
2022-09-13T10:27:21.336Z,9.278359
2022-09-13T10:28:21.350Z,9.278301
2022-09-13T10:29:21.305Z,9.278296
2022-09-13T10:30:21.296Z,9.278316
2022-09-13T10:31:21.353Z,9.278321
2022-09-13T10:32:21.265Z,9.278297
2022-09-13T10:33:21.270Z,9.278430
2022-09-13T10:34:21.223Z,9.278446
2022-09-13T10:35:21.221Z,9.278471
2022-09-13T10:36:35.315Z,9.278354
2022-09-13T10:37:23.182Z,9.278284
2022-09-13T10:38:21.235Z,9.278260
2022-09-13T10:39:21.174Z,9.278320
2022-09-13T10:40:21.171Z,9.278363
2022-09-13T10:41:21.114Z,9.278377
2022-09-13T10:42:21.134Z,9.278266
2022-09-13T10:43:21.146Z,9.278302
2022-09-13T10:44:21.079Z,9.278299
2022-09-13T10:45:21.046Z,9.278384
2022-09-13T10:46:21.113Z,9.278419
2022-09-13T10:47:21.017Z,9.278386
2022-09-13T10:48:21.154Z,9.278421
2022-09-13T10:49:20.984Z,9.278344
2022-09-13T10:50:20.973Z,9.278382
2022-09-13T10:51:20.948Z,9.278408
2022-09-13T10:52:20.933Z,9.278370
2022-09-13T10:53:20.965Z,9.278319
2022-09-13T10:54:20.911Z,9.278309
2022-09-13T10:55:20.908Z,9.278396
2022-09-13T10:56:20.922Z,9.278393
2022-09-13T10:57:20.867Z,9.278319
2022-09-13T10:58:20.935Z,9.278398
2022-09-13T10:59:20.879Z,9.278434
2022-09-13T11:00:20.827Z,9.278409
2022-09-13T11:01:20.826Z,9.278397
2022-09-13T11:02:20.797Z,9.278350
2022-09-13T11:03:20.815Z,9.278406
2022-09-13T11:04:20.784Z,9.278446
2022-09-13T11:05:20.794Z,9.278399
2022-09-13T11:06:20.720Z,9.278380
2022-09-13T11:07:20.723Z,9.278401
2022-09-13T11:08:20.738Z,9.278360
2022-09-13T11:09:20.695Z,9.278198
2022-09-13T11:10:20.652Z,9.278353
2022-09-13T11:11:20.659Z,9.278511
2022-09-13T11:12:20.621Z,9.278547
2022-09-13T11:13:20.615Z,9.278525
2022-09-13T11:14:20.636Z,9.278455
2022-09-13T11:15:20.635Z,9.278306
2022-09-13T11:16:20.616Z,9.278520
2022-09-13T11:17:20.551Z,9.278713
2022-09-13T11:18:20.577Z,9.278532
2022-09-13T11:19:20.560Z,9.278380
2022-09-13T11:20:20.521Z,9.278499
2022-09-13T11:21:20.488Z,9.278420
2022-09-13T11:22:20.477Z,9.278421
2022-09-13T11:23:20.514Z,9.278531
2022-09-13T11:24:20.496Z,9.278419
2022-09-13T11:25:20.439Z,9.278436
2022-09-13T11:26:20.426Z,9.278661
2022-09-13T11:27:20.419Z,9.278421
2022-09-13T11:28:20.455Z,9.278437
2022-09-13T11:29:20.420Z,9.278333
2022-09-13T11:30:20.372Z,9.278353
2022-09-13T11:31:20.407Z,9.278418
2022-09-13T11:32:20.338Z,9.278418
2022-09-13T11:33:20.315Z,9.278410
2022-09-13T11:34:20.321Z,9.278298
2022-09-13T11:35:20.277Z,9.278341
2022-09-13T11:36:20.261Z,9.278376
2022-09-13T11:37:20.246Z,9.278430
2022-09-13T11:38:20.241Z,9.278342
2022-09-13T11:39:20.262Z,9.278398
2022-09-13T11:40:20.222Z,9.278348
2022-09-13T11:41:20.195Z,9.278369
2022-09-13T11:42:20.170Z,9.278364
2022-09-13T11:43:20.158Z,9.278331
2022-09-13T11:44:20.204Z,9.278358